Time;durP1;ratioP1;P1;durP2;ratioP2;P2;SDS_P1;SDS_P2;PMS_P1;PMS_P2;Temp;Humidity;BMP_temperature;BMP_pressure;BME280_temperature;BME280_humidity;BME280_pressure;Samples;Min_cycle;Max_cycle;Signal;HPM_P1;HPM_P2
2021/06/12 00:00:51;;;;;;;23.98;11.60;;;22.60;71.20;;;;;;5092141;28;20412;-63
2021/06/12 00:03:17;;;;;;;26.17;12.85;;;22.60;71.10;;;;;;5080878;28;20020;-65
2021/06/12 00:05:43;;;;;;;24.25;12.90;;;22.60;71.20;;;;;;5088559;28;20031;-63
2021/06/12 00:08:09;;;;;;;31.85;14.07;;;22.60;71.30;;;;;;5092718;28;20036;-63
2021/06/12 00:10:38;;;;;;;26.38;15.43;;;22.50;71.50;;;;;;5092018;28;20471;-63
2021/06/12 00:13:05;;;;;;;30.08;16.88;;;22.50;71.80;;;;;;5091566;28;20035;-63
2021/06/12 00:15:32;;;;;;;30.00;14.40;;;22.50;72.00;;;;;;5092394;28;20031;-63
2021/06/12 00:17:58;;;;;;;30.27;17.70;;;22.50;71.90;;;;;;5092873;28;20456;-63
2021/06/12 00:20:28;;;;;;;27.45;14.75;;;22.50;72.20;;;;;;5090806;28;20028;-63
2021/06/12 00:22:54;;;;;;;24.98;11.43;;;22.40;72.00;;;;;;5091509;28;20036;-63
2021/06/12 00:25:23;;;;;;;28.58;15.70;;;22.40;71.60;;;;;;5091919;28;20073;-63
2021/06/12 00:27:49;;;;;;;30.15;17.90;;;22.40;72.00;;;;;;5090822;28;20042;-63
2021/06/12 00:30:15;;;;;;;30.13;17.15;;;22.30;72.30;;;;;;5092399;28;20078;-63
2021/06/12 00:32:42;;;;;;;25.88;13.32;;;22.40;72.60;;;;;;5086782;28;20028;-63
2021/06/12 00:35:10;;;;;;;25.08;12.48;;;22.30;72.20;;;;;;5092621;28;20032;-63
2021/06/12 00:37:36;;;;;;;33.13;17.65;;;22.30;72.10;;;;;;5086419;28;20031;-63
2021/06/12 00:40:05;;;;;;;30.20;16.30;;;22.30;72.70;;;;;;5089655;28;20048;-63
2021/06/12 00:42:30;;;;;;;31.98;18.20;;;22.20;72.80;;;;;;5089696;28;20028;-63
2021/06/12 00:44:56;;;;;;;31.00;15.52;;;22.20;73.00;;;;;;5092020;28;20032;-63
2021/06/12 00:47:22;;;;;;;28.52;16.80;;;22.30;72.90;;;;;;5091761;28;20044;-63
2021/06/12 00:49:47;;;;;;;35.53;18.23;;;22.20;73.00;;;;;;5091247;28;20043;-63
2021/06/12 00:52:13;;;;;;;36.10;18.52;;;22.30;73.20;;;;;;5090652;28;20032;-63
2021/06/12 00:54:39;;;;;;;32.78;18.90;;;22.20;73.10;;;;;;5090574;28;20020;-63
2021/06/12 00:57:05;;;;;;;24.58;13.68;;;22.20;73.50;;;;;;5091756;28;20032;-63
2021/06/12 00:59:32;;;;;;;31.27;17.95;;;22.20;73.10;;;;;;5092112;28;20081;-63
2021/06/12 01:01:58;;;;;;;32.83;18.77;;;22.20;73.30;;;;;;5080540;28;20554;-63
2021/06/12 01:04:24;;;;;;;38.72;19.65;;;22.20;73.50;;;;;;5088375;28;20024;-63
2021/06/12 01:06:51;;;;;;;30.25;17.70;;;22.20;74.00;;;;;;5091135;28;20032;-63
2021/06/12 01:09:23;;;;;;;33.50;18.73;;;22.20;73.60;;;;;;5089358;28;20036;-63
2021/06/12 01:11:59;;;;;;;32.80;17.60;;;22.10;73.40;;;;;;5077040;28;20036;-63
2021/06/12 01:14:27;;;;;;;29.52;14.52;;;22.20;73.20;;;;;;5092361;28;20043;-63
2021/06/12 01:17:09;;;;;;;30.98;16.35;;;22.20;72.90;;;;;;5086498;28;20039;-63
2021/06/12 01:19:37;;;;;;;34.33;19.60;;;22.10;73.00;;;;;;5063905;28;20020;-63
2021/06/12 01:22:10;;;;;;;37.72;19.85;;;22.10;73.40;;;;;;5089835;28;20119;-63
2021/06/12 01:25:27;;;;;;;34.35;18.83;;;22.10;73.80;;;;;;5092042;28;20541;-63
2021/06/12 01:28:13;;;;;;;31.52;18.35;;;22.10;73.60;;;;;;5043866;28;20391;-63
2021/06/12 01:30:42;;;;;;;32.67;19.23;;;22.10;73.70;;;;;;5082247;28;20023;-63
2021/06/12 01:33:10;;;;;;;35.78;19.60;;;22.00;74.00;;;;;;5087133;28;20035;-63
2021/06/12 01:35:41;;;;;;;30.52;18.23;;;22.00;74.10;;;;;;5092544;28;20134;-63
2021/06/12 01:38:09;;;;;;;33.80;19.13;;;22.10;74.00;;;;;;5091121;28;20032;-63
2021/06/12 01:40:39;;;;;;;34.47;18.48;;;22.00;73.90;;;;;;5094236;28;20499;-63
2021/06/12 01:43:08;;;;;;;38.15;19.65;;;22.00;74.00;;;;;;5093982;28;20028;-63
2021/06/12 01:45:34;;;;;;;31.60;17.80;;;22.00;74.00;;;;;;5090401;28;20193;-63
2021/06/12 01:48:00;;;;;;;29.67;17.60;;;22.00;73.70;;;;;;5093058;28;20415;-63
2021/06/12 01:50:27;;;;;;;30.55;18.30;;;22.00;73.80;;;;;;5092435;28;20036;-63
2021/06/12 01:52:54;;;;;;;27.00;13.10;;;22.00;73.70;;;;;;5094281;28;20395;-63
2021/06/12 01:55:24;;;;;;;28.80;16.08;;;22.00;73.40;;;;;;5095473;28;20028;-63
2021/06/12 01:57:50;;;;;;;32.47;17.15;;;21.90;73.40;;;;;;5090634;28;20031;-63
2021/06/12 02:00:17;;;;;;;30.40;17.35;;;21.90;73.30;;;;;;5093852;28;20099;-63
2021/06/12 02:02:45;;;;;;;31.25;17.70;;;21.90;73.70;;;;;;5094225;28;20020;-63
2021/06/12 02:05:20;;;;;;;32.05;17.40;;;21.90;73.70;;;;;;5075647;28;20116;-63
2021/06/12 02:07:47;;;;;;;29.27;16.17;;;21.90;73.80;;;;;;5094898;28;20122;-63
2021/06/12 02:10:29;;;;;;;37.38;17.02;;;21.80;73.60;;;;;;5087431;28;20043;-63
2021/06/12 02:12:55;;;;;;;30.98;18.42;;;21.80;73.70;;;;;;5088831;28;20438;-63
2021/06/12 02:15:24;;;;;;;28.80;15.88;;;21.80;73.80;;;;;;5094858;28;20016;-63
2021/06/12 02:17:53;;;;;;;35.35;18.85;;;21.70;73.90;;;;;;5081357;28;20032;-63
2021/06/12 02:20:21;;;;;;;31.67;17.02;;;21.70;74.10;;;;;;5094632;28;20383;-63
2021/06/12 02:22:50;;;;;;;32.25;19.13;;;21.70;74.20;;;;;;5094390;28;20115;-63
2021/06/12 02:25:17;;;;;;;32.55;18.13;;;21.70;74.40;;;;;;5093848;28;20028;-63
2021/06/12 02:27:49;;;;;;;29.77;15.57;;;21.60;74.50;;;;;;5092869;28;20480;-63
2021/06/12 02:30:18;;;;;;;26.63;15.00;;;21.60;74.40;;;;;;5091706;28;20031;-63
2021/06/12 02:32:48;;;;;;;31.27;17.27;;;21.60;74.30;;;;;;5093155;28;20032;-63
2021/06/12 02:35:13;;;;;;;30.10;18.20;;;21.60;74.50;;;;;;5092502;28;20028;-63
2021/06/12 02:37:41;;;;;;;22.70;13.98;;;21.60;74.70;;;;;;5092052;28;20024;-63
2021/06/12 02:40:08;;;;;;;28.10;16.45;;;21.60;74.30;;;;;;5089437;28;20051;-63
2021/06/12 02:42:34;;;;;;;24.58;14.02;;;21.50;74.40;;;;;;5091117;28;20053;-63
2021/06/12 02:45:02;;;;;;;28.77;16.33;;;21.50;74.30;;;;;;5092603;28;20027;-63
2021/06/12 02:47:30;;;;;;;31.55;16.67;;;21.50;74.20;;;;;;5092685;28;20040;-63
2021/06/12 02:49:58;;;;;;;26.27;13.95;;;21.40;74.50;;;;;;5093313;28;20399;-63
2021/06/12 02:52:33;;;;;;;25.50;15.70;;;21.40;74.50;;;;;;5094357;28;20039;-63
2021/06/12 02:55:05;;;;;;;25.83;12.63;;;21.40;74.90;;;;;;5092287;28;20032;-63
2021/06/12 02:57:37;;;;;;;26.23;13.90;;;21.30;74.70;;;;;;5093575;28;20024;-63
2021/06/12 03:00:04;;;;;;;25.88;13.43;;;21.30;74.80;;;;;;5093035;28;20035;-63
2021/06/12 03:02:34;;;;;;;32.83;17.30;;;21.30;75.00;;;;;;5093944;28;20529;-63
2021/06/12 03:05:02;;;;;;;20.85;10.02;;;21.30;75.40;;;;;;5092603;28;20077;-63
2021/06/12 03:07:30;;;;;;;23.00;12.73;;;21.30;74.90;;;;;;5092933;28;20036;-63
2021/06/12 03:09:56;;;;;;;25.23;13.80;;;21.20;75.20;;;;;;5094142;28;20073;-63
2021/06/12 03:12:22;;;;;;;23.70;12.88;;;21.20;75.30;;;;;;5092185;28;20028;-63
2021/06/12 03:14:49;;;;;;;26.88;12.82;;;21.20;75.50;;;;;;5091321;28;20035;-63
2021/06/12 03:17:16;;;;;;;29.27;16.25;;;21.20;75.70;;;;;;5090023;28;20043;-63
2021/06/12 03:19:43;;;;;;;23.67;12.95;;;21.10;76.00;;;;;;5083278;28;20035;-63
2021/06/12 03:22:09;;;;;;;27.40;16.25;;;21.00;75.90;;;;;;5091365;28;20115;-63
2021/06/12 03:24:36;;;;;;;17.02;8.70;;;21.10;76.40;;;;;;5093980;28;20028;-63
2021/06/12 03:27:02;;;;;;;18.00;8.88;;;21.10;76.00;;;;;;5093151;28;20043;-63
2021/06/12 03:29:28;;;;;;;31.80;15.75;;;21.00;76.00;;;;;;5089371;28;20069;-63
2021/06/12 03:31:55;;;;;;;18.23;9.65;;;21.00;76.70;;;;;;5091448;28;20066;-63
2021/06/12 03:34:22;;;;;;;14.32;7.85;;;21.00;76.70;;;;;;5088489;28;20082;-63
2021/06/12 03:36:50;;;;;;;28.88;14.90;;;20.90;76.70;;;;;;5092032;28;20036;-63
2021/06/12 03:39:16;;;;;;;9.48;5.68;;;20.90;77.50;;;;;;5092560;28;20048;-63
2021/06/12 03:41:43;;;;;;;20.45;11.13;;;20.90;77.30;;;;;;5073518;28;20035;-63
2021/06/12 03:44:11;;;;;;;25.63;13.68;;;20.80;77.70;;;;;;5091319;28;20028;-63
2021/06/12 03:46:37;;;;;;;23.25;11.23;;;20.90;78.20;;;;;;5090150;28;20471;-63
2021/06/12 03:49:03;;;;;;;11.60;5.82;;;20.80;77.90;;;;;;5092322;28;20425;-63
2021/06/12 03:51:30;;;;;;;16.38;8.45;;;20.80;77.80;;;;;;5090009;28;20036;-63
2021/06/12 03:53:57;;;;;;;22.83;11.25;;;20.80;78.00;;;;;;5093220;28;20106;-63
2021/06/12 03:56:30;;;;;;;17.35;8.13;;;20.80;78.30;;;;;;5092092;28;20030;-63
2021/06/12 03:58:56;;;;;;;26.67;11.85;;;20.80;79.00;;;;;;5080673;28;20035;-63
2021/06/12 04:01:22;;;;;;;24.08;12.98;;;20.70;78.40;;;;;;5092884;28;20036;-63
2021/06/12 04:03:48;;;;;;;19.70;11.40;;;20.80;78.60;;;;;;5091834;28;20019;-63
2021/06/12 04:06:13;;;;;;;14.27;6.95;;;20.70;78.40;;;;;;5092785;28;20386;-63
2021/06/12 04:08:40;;;;;;;13.70;8.25;;;20.70;78.30;;;;;;5092108;28;20043;-63
2021/06/12 04:11:07;;;;;;;22.95;13.05;;;20.70;78.40;;;;;;5091570;28;20038;-63
2021/06/12 04:13:32;;;;;;;18.95;8.68;;;20.70;78.70;;;;;;5090924;28;20028;-63
2021/06/12 04:15:58;;;;;;;12.20;5.57;;;20.70;78.40;;;;;;5091508;28;20051;-63
2021/06/12 04:18:24;;;;;;;8.90;5.03;;;20.70;78.30;;;;;;5089072;28;20475;-63
2021/06/12 04:20:50;;;;;;;30.40;13.82;;;20.70;78.50;;;;;;5087675;28;20020;-63
2021/06/12 04:23:16;;;;;;;22.00;11.95;;;20.70;78.90;;;;;;5092730;28;20078;-63
2021/06/12 04:25:42;;;;;;;19.15;10.40;;;20.70;78.90;;;;;;5089293;28;20028;-63
2021/06/12 04:28:08;;;;;;;11.48;5.50;;;20.70;79.00;;;;;;5092272;28;20114;-63
2021/06/12 04:30:34;;;;;;;11.95;6.90;;;20.60;78.70;;;;;;5090818;28;20031;-63
2021/06/12 04:33:01;;;;;;;16.98;7.30;;;20.60;78.80;;;;;;5090452;28;20059;-63
2021/06/12 04:35:28;;;;;;;14.45;8.15;;;20.60;79.10;;;;;;5091524;28;20024;-63
2021/06/12 04:37:55;;;;;;;14.68;8.55;;;20.60;79.20;;;;;;5089860;28;20063;-63
2021/06/12 04:40:21;;;;;;;11.00;6.47;;;20.60;79.60;;;;;;5090424;28;20047;-63
2021/06/12 04:42:47;;;;;;;20.48;10.93;;;20.50;79.50;;;;;;5091380;28;20036;-63
2021/06/12 04:45:13;;;;;;;35.00;16.55;;;20.50;79.70;;;;;;5091574;28;20097;-63
2021/06/12 04:47:38;;;;;;;18.33;9.30;;;20.50;80.40;;;;;;5090588;28;20044;-63
2021/06/12 04:50:10;;;;;;;14.95;10.05;;;20.60;79.70;;;;;;5090965;28;20020;-64
2021/06/12 04:52:37;;;;;;;12.20;6.63;;;20.50;79.60;;;;;;5090646;28;20088;-63
2021/06/12 04:55:07;;;;;;;26.75;10.57;;;20.60;79.40;;;;;;5090893;28;20031;-63
2021/06/12 04:57:33;;;;;;;13.27;6.68;;;20.60;79.40;;;;;;5084881;28;20483;-63
2021/06/12 04:59:59;;;;;;;15.40;8.30;;;20.50;79.10;;;;;;5089251;28;20028;-63
2021/06/12 05:02:24;;;;;;;10.35;5.40;;;20.50;79.20;;;;;;5091291;28;20039;-63
2021/06/12 05:04:51;;;;;;;11.25;6.22;;;20.50;79.00;;;;;;5088411;28;20050;-63
2021/06/12 05:07:17;;;;;;;17.65;9.55;;;20.50;79.00;;;;;;5089482;28;20044;-63
2021/06/12 05:09:43;;;;;;;19.80;9.40;;;20.50;79.20;;;;;;5091441;28;20048;-63
2021/06/12 05:12:09;;;;;;;17.13;8.00;;;20.50;79.20;;;;;;5094430;28;20031;-64
2021/06/12 05:14:35;;;;;;;16.88;11.18;;;20.60;79.20;;;;;;5094765;28;20055;-64
2021/06/12 05:17:04;;;;;;;20.10;10.65;;;20.50;79.30;;;;;;5093143;28;20068;-64
2021/06/12 05:19:30;;;;;;;16.20;9.32;;;20.50;79.30;;;;;;5095053;28;20020;-64
2021/06/12 05:21:56;;;;;;;19.85;10.95;;;20.60;79.10;;;;;;5093625;28;20445;-64
2021/06/12 05:24:28;;;;;;;21.20;9.95;;;20.60;79.00;;;;;;5095646;28;20475;-64
2021/06/12 05:26:54;;;;;;;11.10;6.40;;;20.70;79.20;;;;;;5095411;28;20104;-63
2021/06/12 05:29:19;;;;;;;23.02;9.45;;;20.70;78.60;;;;;;5088517;28;20475;-63
2021/06/12 05:31:45;;;;;;;14.40;7.22;;;20.70;79.00;;;;;;5095050;28;20036;-64
2021/06/12 05:34:11;;;;;;;8.40;3.55;;;20.70;78.60;;;;;;5094850;28;20403;-64
2021/06/12 05:36:37;;;;;;;12.55;6.78;;;20.70;78.00;;;;;;5094162;28;20076;-64
2021/06/12 05:39:05;;;;;;;15.25;5.32;;;20.70;78.10;;;;;;5095891;28;20067;-64
2021/06/12 05:41:31;;;;;;;11.15;5.78;;;20.70;78.10;;;;;;5094770;28;20027;-64
2021/06/12 05:43:56;;;;;;;12.02;5.88;;;20.70;78.00;;;;;;5094168;28;20052;-64
2021/06/12 05:46:22;;;;;;;11.75;5.68;;;20.70;78.00;;;;;;5092173;28;20063;-63
2021/06/12 05:48:48;;;;;;;11.88;4.75;;;20.70;78.50;;;;;;5089922;28;20032;-65
2021/06/12 05:51:13;;;;;;;9.23;4.55;;;20.70;77.70;;;;;;5092213;28;20028;-64
2021/06/12 05:53:39;;;;;;;9.40;4.50;;;20.80;77.50;;;;;;5092257;28;20030;-65
2021/06/12 05:56:05;;;;;;;12.82;5.28;;;20.80;77.50;;;;;;5093072;28;20058;-63
2021/06/12 05:58:32;;;;;;;11.80;4.28;;;20.80;77.70;;;;;;5092316;28;20028;-66
2021/06/12 06:00:57;;;;;;;11.63;4.32;;;20.80;77.50;;;;;;5093864;28;20028;-66
2021/06/12 06:03:23;;;;;;;8.73;3.90;;;20.80;77.20;;;;;;5092865;28;20027;-64
2021/06/12 06:05:49;;;;;;;10.05;4.50;;;20.80;76.90;;;;;;5093541;28;20467;-64
2021/06/12 06:08:15;;;;;;;9.98;4.45;;;20.80;76.70;;;;;;5090165;28;20040;-64
2021/06/12 06:10:41;;;;;;;11.90;3.70;;;20.80;76.40;;;;;;5091405;28;20028;-64
2021/06/12 06:13:07;;;;;;;12.00;4.00;;;20.80;76.40;;;;;;5092619;28;20043;-64
2021/06/12 06:15:32;;;;;;;9.25;3.42;;;20.80;76.40;;;;;;5093251;28;20027;-64
2021/06/12 06:17:58;;;;;;;9.48;3.13;;;20.80;76.40;;;;;;5092013;28;20032;-62
2021/06/12 06:20:24;;;;;;;12.73;4.00;;;20.80;76.00;;;;;;5091368;28;20028;-64
2021/06/12 06:22:50;;;;;;;9.50;3.03;;;20.70;75.30;;;;;;5092360;28;20053;-64
2021/06/12 06:25:16;;;;;;;8.15;2.60;;;20.70;75.10;;;;;;5092355;28;20391;-64
2021/06/12 06:27:42;;;;;;;6.45;2.80;;;20.80;74.70;;;;;;5090387;28;20039;-64
2021/06/12 06:30:09;;;;;;;4.38;2.40;;;20.70;74.50;;;;;;5092645;28;20037;-64
2021/06/12 06:32:35;;;;;;;10.88;2.72;;;20.70;74.40;;;;;;5050319;28;20024;-64
2021/06/12 06:35:01;;;;;;;5.15;2.30;;;20.80;74.60;;;;;;5090462;28;20034;-63
2021/06/12 06:37:27;;;;;;;4.53;2.38;;;20.80;74.40;;;;;;5092256;28;20035;-64
2021/06/12 06:39:53;;;;;;;11.18;2.45;;;20.70;74.90;;;;;;5091348;28;20039;-63
2021/06/12 06:42:18;;;;;;;5.00;2.33;;;20.80;74.40;;;;;;5092760;28;20028;-64
2021/06/12 06:44:44;;;;;;;5.60;2.20;;;20.70;74.40;;;;;;5090992;28;20491;-64
2021/06/12 06:47:10;;;;;;;8.55;2.38;;;20.70;74.30;;;;;;5090355;28;20032;-64
2021/06/12 06:49:36;;;;;;;12.57;2.92;;;20.80;74.40;;;;;;5091978;28;20032;-64
2021/06/12 06:52:04;;;;;;;7.97;2.58;;;20.70;73.90;;;;;;5092349;28;20024;-64
2021/06/12 06:54:30;;;;;;;9.10;2.42;;;20.80;73.80;;;;;;5088930;28;20039;-64
2021/06/12 06:56:56;;;;;;;5.47;2.17;;;20.80;73.50;;;;;;5090294;28;20024;-64
2021/06/12 06:59:22;;;;;;;7.95;2.40;;;20.80;73.10;;;;;;5091688;28;20023;-64
2021/06/12 07:01:47;;;;;;;5.43;2.13;;;20.80;72.80;;;;;;5091000;28;20106;-64
2021/06/12 07:04:13;;;;;;;6.65;2.08;;;20.80;72.70;;;;;;5092472;28;20035;-64
2021/06/12 07:06:39;;;;;;;9.10;2.13;;;20.90;72.90;;;;;;5091579;28;20479;-64
2021/06/12 07:09:05;;;;;;;6.18;1.90;;;20.90;72.70;;;;;;5091507;28;20036;-64
2021/06/12 07:11:31;;;;;;;7.82;2.10;;;20.90;71.50;;;;;;5089613;28;20024;-64
2021/06/12 07:13:57;;;;;;;8.63;1.95;;;20.90;72.00;;;;;;5090665;28;20024;-63
2021/06/12 07:16:23;;;;;;;5.20;2.10;;;20.90;72.20;;;;;;5091662;28;20057;-62
2021/06/12 07:18:48;;;;;;;9.20;2.20;;;20.90;72.00;;;;;;5092484;28;20030;-63
2021/06/12 07:21:14;;;;;;;6.68;1.92;;;21.00;70.70;;;;;;5092788;28;20475;-67
2021/06/12 07:23:40;;;;;;;13.00;2.53;;;21.00;70.60;;;;;;5091039;28;20426;-63
2021/06/12 07:26:06;;;;;;;6.68;1.92;;;21.00;67.80;;;;;;5092356;28;20382;-64
2021/06/12 07:28:32;;;;;;;8.55;2.28;;;21.00;68.70;;;;;;5091984;28;20062;-63
2021/06/12 07:30:58;;;;;;;8.02;2.20;;;21.00;66.60;;;;;;5090672;28;20031;-63
2021/06/12 07:33:23;;;;;;;3.92;1.60;;;21.00;67.70;;;;;;5091701;28;20036;-63
2021/06/12 07:35:49;;;;;;;7.63;1.60;;;21.10;68.90;;;;;;5087868;28;20025;-65
2021/06/12 07:38:15;;;;;;;7.05;1.63;;;21.10;68.80;;;;;;5092690;28;20046;-63
2021/06/12 07:40:43;;;;;;;8.98;2.35;;;21.10;67.30;;;;;;5092505;28;20498;-63
2021/06/12 07:43:09;;;;;;;5.32;1.63;;;21.00;67.70;;;;;;5091944;28;20046;-63
2021/06/12 07:45:35;;;;;;;11.20;2.50;;;21.10;67.60;;;;;;5071532;28;20100;-64
2021/06/12 07:48:02;;;;;;;8.63;2.15;;;21.10;66.90;;;;;;5093158;28;20043;-65
2021/06/12 07:50:29;;;;;;;5.75;1.40;;;21.10;67.80;;;;;;5091934;28;20568;-64
2021/06/12 07:52:55;;;;;;;4.45;1.58;;;21.10;67.50;;;;;;5091399;28;20020;-64
2021/06/12 07:55:20;;;;;;;13.88;1.52;;;21.20;68.10;;;;;;5092383;28;20387;-64
2021/06/12 07:57:46;;;;;;;4.47;1.45;;;21.20;68.50;;;;;;5090842;28;20036;-65
2021/06/12 08:00:13;;;;;;;7.55;1.60;;;21.20;68.20;;;;;;5090801;28;20089;-64
2021/06/12 08:02:38;;;;;;;2.45;1.48;;;21.30;67.90;;;;;;5091229;28;20036;-63
2021/06/12 08:05:05;;;;;;;3.88;1.55;;;21.20;67.10;;;;;;5091895;28;20031;-63
2021/06/12 08:07:31;;;;;;;4.35;1.35;;;21.30;65.60;;;;;;5091625;28;20446;-63
2021/06/12 08:09:59;;;;;;;4.18;1.65;;;21.30;65.00;;;;;;5090083;28;20537;-63
2021/06/12 08:12:25;;;;;;;5.05;1.83;;;21.30;66.30;;;;;;5090367;28;20036;-64
2021/06/12 08:14:51;;;;;;;4.53;1.40;;;21.30;64.50;;;;;;5091150;28;20104;-65
2021/06/12 08:17:17;;;;;;;5.43;1.90;;;21.30;66.60;;;;;;5088830;28;20027;-63
2021/06/12 08:19:43;;;;;;;3.97;1.77;;;21.30;66.30;;;;;;5090115;28;20036;-64
2021/06/12 08:22:11;;;;;;;4.30;1.40;;;21.30;66.40;;;;;;5088355;28;20066;-64
2021/06/12 08:24:37;;;;;;;6.43;1.08;;;21.30;66.10;;;;;;5088270;28;20451;-63
2021/06/12 08:27:04;;;;;;;7.15;1.70;;;21.40;67.60;;;;;;5087559;28;20107;-64
2021/06/12 08:29:30;;;;;;;4.28;1.40;;;21.50;66.00;;;;;;5088266;28;20032;-63
2021/06/12 08:31:55;;;;;;;7.07;1.85;;;21.50;65.10;;;;;;5087965;28;20031;-63
2021/06/12 08:34:22;;;;;;;2.45;1.33;;;21.40;63.80;;;;;;5088380;28;20031;-63
2021/06/12 08:36:49;;;;;;;6.47;2.15;;;21.40;65.70;;;;;;5087784;28;20090;-63
2021/06/12 08:39:15;;;;;;;5.15;1.60;;;21.50;66.50;;;;;;5087305;28;20048;-63
2021/06/12 08:41:42;;;;;;;6.55;1.70;;;21.50;65.70;;;;;;5087289;28;20485;-64
2021/06/12 08:44:10;;;;;;;10.27;1.50;;;21.50;65.20;;;;;;5087559;28;20035;-64
2021/06/12 08:46:37;;;;;;;7.80;1.70;;;21.50;64.60;;;;;;5088523;28;20085;-63
2021/06/12 08:49:03;;;;;;;5.90;1.38;;;21.50;65.20;;;;;;5087927;28;20036;-63
2021/06/12 08:51:29;;;;;;;5.28;1.80;;;21.50;66.20;;;;;;5089011;28;20060;-64
2021/06/12 08:53:55;;;;;;;5.80;1.38;;;21.50;66.40;;;;;;5089018;28;20048;-65
2021/06/12 08:56:22;;;;;;;2.35;1.13;;;21.60;67.20;;;;;;5085310;28;20027;-64
2021/06/12 08:58:48;;;;;;;6.03;1.70;;;21.60;67.20;;;;;;5088916;28;20044;-64
2021/06/12 09:01:14;;;;;;;8.00;1.77;;;21.60;65.70;;;;;;5090360;28;20400;-64
2021/06/12 09:03:42;;;;;;;8.10;1.38;;;21.60;66.70;;;;;;5086799;28;20111;-64
2021/06/12 09:06:08;;;;;;;7.80;1.40;;;21.60;63.80;;;;;;5087612;28;20028;-64
2021/06/12 09:08:38;;;;;;;2.88;0.95;;;21.60;65.60;;;;;;5086382;28;20040;-64
2021/06/12 09:11:07;;;;;;;5.30;1.35;;;21.60;65.70;;;;;;5087103;28;20032;-64
2021/06/12 09:13:45;;;;;;;2.17;1.15;;;21.60;65.90;;;;;;5069105;28;20070;-66
2021/06/12 09:16:26;;;;;;;6.60;1.70;;;21.70;64.90;;;;;;5087142;28;20495;-64
2021/06/12 09:18:54;;;;;;;6.15;1.50;;;21.70;63.10;;;;;;5085393;28;20028;-64
2021/06/12 09:21:26;;;;;;;2.92;1.20;;;21.60;64.40;;;;;;5084937;28;20024;-63
2021/06/12 09:23:53;;;;;;;9.02;1.73;;;21.70;64.10;;;;;;5087462;28;20031;-63
2021/06/12 09:26:22;;;;;;;2.70;1.25;;;21.60;61.80;;;;;;5087980;28;20028;-63
2021/06/12 09:28:49;;;;;;;4.43;1.70;;;21.60;62.10;;;;;;5085333;28;20143;-66
2021/06/12 09:31:20;;;;;;;4.20;1.48;;;21.70;62.20;;;;;;5087273;28;20609;-63
2021/06/12 09:33:47;;;;;;;5.07;1.60;;;21.70;64.30;;;;;;5087081;28;20040;-63
2021/06/12 09:36:13;;;;;;;6.10;1.70;;;21.70;62.90;;;;;;5085932;28;20085;-63
2021/06/12 09:38:41;;;;;;;3.63;1.30;;;21.60;63.30;;;;;;5088316;28;20061;-63
2021/06/12 09:41:29;;;;;;;3.65;1.38;;;21.60;63.90;;;;;;5086606;28;20039;-63
2021/06/12 09:43:55;;;;;;;4.93;1.42;;;21.70;62.40;;;;;;5087241;28;20036;-63
2021/06/12 09:46:30;;;;;;;6.32;1.13;;;21.70;62.70;;;;;;5090153;28;20093;-63
2021/06/12 09:48:56;;;;;;;5.18;1.40;;;21.70;64.00;;;;;;5094239;28;20040;-65
2021/06/12 09:51:22;;;;;;;6.43;1.85;;;21.60;63.80;;;;;;5094044;28;20081;-63
2021/06/12 09:53:50;;;;;;;6.25;1.85;;;21.70;63.70;;;;;;5095303;28;20178;-62
2021/06/12 09:56:16;;;;;;;7.25;1.85;;;21.70;64.60;;;;;;5081458;28;20035;-63
2021/06/12 09:58:43;;;;;;;9.35;2.13;;;21.70;65.10;;;;;;5080578;28;20032;-62
2021/06/12 10:01:11;;;;;;;4.45;2.03;;;21.80;64.10;;;;;;5094775;28;20036;-63
2021/06/12 10:03:37;;;;;;;9.30;1.88;;;21.70;65.00;;;;;;5093451;28;20081;-62
2021/06/12 10:06:16;;;;;;;4.25;1.70;;;21.80;65.80;;;;;;5095301;28;20028;-62
2021/06/12 10:08:47;;;;;;;5.25;1.55;;;21.80;64.30;;;;;;5093165;28;20043;-62
2021/06/12 10:11:19;;;;;;;7.47;2.13;;;21.70;65.00;;;;;;5094040;28;20030;-63
2021/06/12 10:13:46;;;;;;;6.72;2.28;;;21.80;64.60;;;;;;5093296;28;20412;-63
2021/06/12 10:16:13;;;;;;;5.13;2.10;;;21.80;65.60;;;;;;5093725;28;20059;-63
2021/06/12 10:18:40;;;;;;;7.28;1.70;;;21.80;65.00;;;;;;5093023;28;20043;-63
2021/06/12 10:21:10;;;;;;;7.53;1.73;;;21.90;64.50;;;;;;5083105;28;20039;-63
2021/06/12 10:23:39;;;;;;;8.38;1.80;;;21.90;63.60;;;;;;5090856;28;20097;-63
2021/06/12 10:26:06;;;;;;;5.75;1.88;;;21.90;64.50;;;;;;5092778;28;20052;-63
2021/06/12 10:28:32;;;;;;;6.85;2.22;;;22.00;65.30;;;;;;5094615;28;20047;-63
2021/06/12 10:31:10;;;;;;;9.90;1.92;;;22.00;64.60;;;;;;5091601;28;20379;-62
2021/06/12 10:33:40;;;;;;;12.05;2.05;;;22.00;64.00;;;;;;5089467;28;20138;-63
2021/06/12 10:36:24;;;;;;;12.20;2.22;;;22.00;65.00;;;;;;5090520;28;20081;-64
2021/06/12 10:38:51;;;;;;;9.70;2.88;;;22.00;65.50;;;;;;5090828;28;20036;-62
2021/06/12 10:41:21;;;;;;;11.75;2.28;;;22.00;65.30;;;;;;5090310;28;20375;-63
2021/06/12 10:43:48;;;;;;;12.18;2.28;;;22.00;65.80;;;;;;5091953;28;20040;-65
2021/06/12 10:46:19;;;;;;;10.00;2.08;;;22.10;64.70;;;;;;5088849;28;20413;-63
2021/06/12 10:49:02;;;;;;;8.75;2.40;;;22.10;65.60;;;;;;5093005;28;20040;-63
2021/06/12 10:51:28;;;;;;;9.02;1.70;;;22.20;64.90;;;;;;5089478;28;20123;-63
2021/06/12 10:54:27;;;;;;;4.05;1.20;;;22.10;65.60;;;;;;5086159;28;20662;-64
2021/06/12 10:56:54;;;;;;;8.70;2.00;;;22.10;65.60;;;;;;5089362;28;20161;-63
2021/06/12 11:00:00;;;;;;;7.78;2.10;;;22.10;63.60;;;;;;5091073;28;20157;-64
2021/06/12 11:02:43;;;;;;;6.97;1.75;;;22.10;64.10;;;;;;5089511;28;20028;-64
2021/06/12 11:05:25;;;;;;;5.68;1.90;;;22.10;64.00;;;;;;5089204;28;20123;-63
2021/06/12 11:08:15;;;;;;;4.13;0.88;;;22.10;64.30;;;;;;5089426;28;20131;-64
2021/06/12 11:10:41;;;;;;;4.97;1.80;;;22.20;64.20;;;;;;5090048;28;20039;-64
2021/06/12 11:13:21;;;;;;;4.13;1.10;;;22.20;61.10;;;;;;5088353;28;20041;-64
2021/06/12 11:15:47;;;;;;;3.65;1.23;;;22.20;58.90;;;;;;5089500;28;20032;-64
2021/06/12 11:18:20;;;;;;;6.10;1.60;;;22.20;58.70;;;;;;5089875;28;20093;-64
2021/06/12 11:21:13;;;;;;;9.90;1.45;;;22.20;60.70;;;;;;5091053;28;20455;-64
2021/06/12 11:23:55;;;;;;;3.95;1.48;;;22.20;61.00;;;;;;5085107;28;20032;-65
2021/06/12 11:26:21;;;;;;;2.38;1.45;;;22.20;59.40;;;;;;5083831;28;20032;-63
2021/06/12 11:29:07;;;;;;;8.23;1.50;;;22.20;61.10;;;;;;5085126;28;20392;-63
2021/06/12 11:31:35;;;;;;;2.90;1.10;;;22.20;61.40;;;;;;5092928;28;20047;-63
2021/06/12 11:34:10;;;;;;;9.43;1.30;;;22.20;60.30;;;;;;5085505;28;20040;-63
2021/06/12 11:36:36;;;;;;;3.25;1.33;;;22.20;58.30;;;;;;5092533;28;20089;-63
2021/06/12 11:39:04;;;;;;;5.30;1.17;;;22.20;59.40;;;;;;5092443;28;20040;-63
2021/06/12 11:41:30;;;;;;;4.03;1.05;;;22.20;59.10;;;;;;5091584;28;20047;-63
2021/06/12 11:43:56;;;;;;;5.82;1.50;;;22.20;56.40;;;;;;5086670;28;20464;-64
2021/06/12 11:46:25;;;;;;;11.88;1.70;;;22.20;57.70;;;;;;5091246;28;20039;-63
2021/06/12 11:48:52;;;;;;;6.55;1.33;;;22.20;56.60;;;;;;5092087;28;20476;-63
2021/06/12 11:51:28;;;;;;;5.55;1.55;;;22.30;57.00;;;;;;5091066;28;20028;-63
2021/06/12 11:54:16;;;;;;;6.25;1.27;;;22.30;57.50;;;;;;5081203;28;20028;-63
2021/06/12 11:56:50;;;;;;;7.18;1.48;;;22.30;56.70;;;;;;5091247;28;20024;-63
2021/06/12 11:59:20;;;;;;;3.75;0.85;;;22.30;54.90;;;;;;5083027;28;20024;-70
2021/06/12 12:01:50;;;;;;;7.50;1.33;;;22.30;57.80;;;;;;5088000;28;20586;-64
2021/06/12 12:04:21;;;;;;;1.63;0.82;;;22.30;57.90;;;;;;5090819;28;20480;-63
2021/06/12 12:06:56;;;;;;;5.28;1.38;;;22.30;59.10;;;;;;5087484;28;20039;-63
2021/06/12 12:09:33;;;;;;;3.70;1.30;;;22.40;58.70;;;;;;5083118;28;20075;-63
2021/06/12 12:12:08;;;;;;;6.60;1.60;;;22.40;58.80;;;;;;5091361;28;20113;-63
2021/06/12 12:14:39;;;;;;;5.18;1.50;;;22.40;57.20;;;;;;5089925;28;20040;-63
2021/06/12 12:17:07;;;;;;;5.57;1.50;;;22.40;58.50;;;;;;5084533;28;20032;-63
2021/06/12 12:19:33;;;;;;;9.50;1.88;;;22.40;59.60;;;;;;5088557;28;20460;-63
2021/06/12 12:22:01;;;;;;;6.05;1.55;;;22.40;59.60;;;;;;5086660;28;20020;-63
2021/06/12 12:24:29;;;;;;;9.25;1.60;;;22.40;59.30;;;;;;5087995;28;20028;-63
2021/06/12 12:27:02;;;;;;;11.77;2.13;;;22.40;60.50;;;;;;5089745;28;20123;-64
2021/06/12 12:29:31;;;;;;;8.98;1.50;;;22.50;60.90;;;;;;5091733;28;20027;-63
2021/06/12 12:32:00;;;;;;;6.43;1.58;;;22.50;60.90;;;;;;5083736;28;20026;-63
2021/06/12 12:34:39;;;;;;;9.07;1.70;;;22.50;61.10;;;;;;5091706;28;20023;-63
2021/06/12 12:37:07;;;;;;;4.38;1.50;;;22.50;61.00;;;;;;5089464;28;20067;-63
2021/06/12 12:39:42;;;;;;;5.45;1.60;;;22.50;61.00;;;;;;5087874;28;20052;-64
2021/06/12 12:42:13;;;;;;;9.55;1.40;;;22.50;60.50;;;;;;5089582;28;20028;-63
2021/06/12 12:44:42;;;;;;;2.00;0.73;;;22.60;61.40;;;;;;5088172;28;20089;-63